createdAt,value
2022-11-17T00:00:38.375Z,8.52
2022-11-17T00:03:05.132Z,11.25
2022-11-17T00:05:31.954Z,8.30
2022-11-17T00:07:58.742Z,8.95
2022-11-17T00:10:25.607Z,7.20
2022-11-17T00:13:11.266Z,9.60
2022-11-17T00:15:38.165Z,7.57
2022-11-17T00:18:23.593Z,7.82
2022-11-17T00:21:09.373Z,6.95
2022-11-17T00:23:47.179Z,9.10
2022-11-17T00:26:19.631Z,9.00
2022-11-17T00:28:46.476Z,9.07
2022-11-17T00:31:32.876Z,8.52
2022-11-17T00:34:06.061Z,7.82
2022-11-17T00:36:35.747Z,6.78
2022-11-17T00:39:02.940Z,7.60
2022-11-17T00:41:29.904Z,6.75
2022-11-17T00:43:56.707Z,8.60
2022-11-17T00:46:23.647Z,8.00
2022-11-17T00:48:50.602Z,7.15
2022-11-17T00:51:17.542Z,7.00
2022-11-17T00:53:44.551Z,4.93
2022-11-17T00:56:11.434Z,8.65
2022-11-17T00:58:38.253Z,7.70
2022-11-17T01:01:05.660Z,8.05
2022-11-17T01:03:34.877Z,7.93
2022-11-17T01:06:13.502Z,8.38
2022-11-17T01:08:40.593Z,7.68
2022-11-17T01:11:11.451Z,6.50
2022-11-17T01:13:39.933Z,6.93
2022-11-17T01:16:09.394Z,7.65
2022-11-17T01:18:36.339Z,8.32
2022-11-17T01:21:10.405Z,5.72
2022-11-17T01:23:38.926Z,6.35
2022-11-17T01:26:09.661Z,4.57
2022-11-17T01:28:37.468Z,7.20
2022-11-17T01:31:13.402Z,5.47
2022-11-17T01:33:40.982Z,6.80
2022-11-17T01:36:16.315Z,4.90
2022-11-17T01:38:43.877Z,4.43
2022-11-17T01:41:17.620Z,5.90
2022-11-17T01:43:52.243Z,5.10
2022-11-17T01:46:28.055Z,4.15
2022-11-17T01:49:04.584Z,4.53
2022-11-17T01:51:33.434Z,5.05
2022-11-17T01:54:00.873Z,5.88
2022-11-17T01:56:33.042Z,5.93
2022-11-17T01:59:13.426Z,5.88
2022-11-17T02:01:55.738Z,4.40
2022-11-17T02:04:25.992Z,3.90
2022-11-17T02:06:59.702Z,5.55
2022-11-17T02:09:27.565Z,6.15
2022-11-17T02:11:58.634Z,5.20
2022-11-17T02:14:25.497Z,5.65
2022-11-17T02:16:52.393Z,2.75
2022-11-17T02:19:22.794Z,5.35
2022-11-17T02:22:40.539Z,5.05
2022-11-17T02:25:27.392Z,3.28
2022-11-17T02:28:13.466Z,5.70
2022-11-17T02:31:00.079Z,6.57
2022-11-17T02:33:48.053Z,3.65
2022-11-17T02:36:22.323Z,5.55
2022-11-17T02:38:59.085Z,5.00
2022-11-17T02:41:49.506Z,4.47
2022-11-17T02:44:39.949Z,5.88
2022-11-17T02:47:17.107Z,4.32
2022-11-17T02:49:53.690Z,6.15
2022-11-17T02:52:21.411Z,4.68
2022-11-17T02:54:48.194Z,4.10
2022-11-17T02:57:35.796Z,5.13
2022-11-17T03:00:14.918Z,5.00
2022-11-17T03:03:05.999Z,6.32
2022-11-17T03:05:38.323Z,6.70
2022-11-17T03:08:25.607Z,6.18
2022-11-17T03:11:04.045Z,5.93
2022-11-17T03:13:53.824Z,6.07
2022-11-17T03:16:34.754Z,5.85
2022-11-17T03:19:21.563Z,5.53
2022-11-17T03:21:56.993Z,5.75
2022-11-17T03:24:31.289Z,6.55
2022-11-17T03:27:17.930Z,5.72
2022-11-17T03:29:50.470Z,9.57
2022-11-17T03:32:19.013Z,7.03
2022-11-17T03:35:17.626Z,6.45
2022-11-17T03:37:52.112Z,6.47
2022-11-17T03:40:25.934Z,6.18
2022-11-17T03:42:57.465Z,6.00
2022-11-17T03:45:29.046Z,6.57
2022-11-17T03:48:05.026Z,7.45
2022-11-17T03:50:38.592Z,7.22
2022-11-17T03:53:06.618Z,5.45
2022-11-17T03:56:09.011Z,8.35
2022-11-17T03:58:44.390Z,5.20
2022-11-17T04:01:12.460Z,9.30
2022-11-17T04:03:40.012Z,7.35
2022-11-17T04:06:07.032Z,4.65
2022-11-17T04:08:33.901Z,7.10
2022-11-17T04:11:19.152Z,4.70
2022-11-17T04:14:04.839Z,4.32
2022-11-17T04:16:31.848Z,3.88
2022-11-17T04:18:59.254Z,5.63
2022-11-17T04:21:26.661Z,6.40
2022-11-17T04:23:53.517Z,4.25
2022-11-17T04:26:39.741Z,6.32
2022-11-17T04:29:06.493Z,3.45
2022-11-17T04:31:33.656Z,4.97
2022-11-17T04:34:05.706Z,5.07
2022-11-17T04:36:36.700Z,5.65
2022-11-17T04:39:04.061Z,5.05
2022-11-17T04:41:49.885Z,6.53
2022-11-17T04:44:17.782Z,4.47
2022-11-17T04:46:46.157Z,4.45
2022-11-17T04:49:14.532Z,6.05
2022-11-17T04:51:42.213Z,5.50
2022-11-17T04:54:10.570Z,5.15
2022-11-17T04:56:37.995Z,7.50
2022-11-17T04:59:05.672Z,7.15
2022-11-17T05:01:32.857Z,8.15
2022-11-17T05:04:08.325Z,9.63
2022-11-17T05:06:38.570Z,10.77
2022-11-17T05:09:11.338Z,11.15
2022-11-17T05:11:57.337Z,14.73
2022-11-17T05:14:25.730Z,12.23
2022-11-17T05:17:09.582Z,10.18
2022-11-17T05:19:45.969Z,11.65
2022-11-17T05:22:37.065Z,12.43
2022-11-17T05:25:04.983Z,10.50
2022-11-17T05:27:33.768Z,12.60
2022-11-17T05:30:01.649Z,10.48
2022-11-17T05:32:28.481Z,10.82
2022-11-17T05:34:55.248Z,9.00
2022-11-17T05:37:22.092Z,9.93
2022-11-17T05:39:48.927Z,8.20
2022-11-17T05:42:15.732Z,11.32
2022-11-17T05:44:42.739Z,11.73
2022-11-17T05:47:09.614Z,8.98
2022-11-17T05:49:36.429Z,8.60
2022-11-17T05:52:03.251Z,8.88
2022-11-17T05:54:30.107Z,9.13
2022-11-17T05:57:04.659Z,10.95
2022-11-17T05:59:33.900Z,9.05
2022-11-17T06:02:16.433Z,8.18
2022-11-17T06:04:44.169Z,6.60
2022-11-17T06:07:11.439Z,5.80
2022-11-17T06:09:41.775Z,8.65
2022-11-17T06:12:09.384Z,3.50
2022-11-17T06:14:37.633Z,4.45
2022-11-17T06:17:11.844Z,9.30
2022-11-17T06:19:42.645Z,8.43
2022-11-17T06:22:13.039Z,6.13
2022-11-17T06:24:43.351Z,5.57
2022-11-17T06:27:11.996Z,6.18
2022-11-17T06:29:43.945Z,4.38
2022-11-17T06:32:15.723Z,7.70
2022-11-17T06:34:49.083Z,5.40
2022-11-17T06:37:18.970Z,7.18
2022-11-17T06:39:45.849Z,10.80
2022-11-17T06:42:12.611Z,7.18
2022-11-17T06:44:39.455Z,5.13
2022-11-17T06:47:06.302Z,4.47
2022-11-17T06:49:33.056Z,8.35
2022-11-17T06:52:00.176Z,6.00
2022-11-17T06:54:26.994Z,5.82
2022-11-17T06:56:55.388Z,5.55
2022-11-17T06:59:22.228Z,5.50
2022-11-17T07:01:49.088Z,6.50
2022-11-17T07:04:15.957Z,6.57
2022-11-17T07:06:42.708Z,4.95
2022-11-17T07:09:09.597Z,7.95
2022-11-17T07:11:36.452Z,5.80
2022-11-17T07:14:03.577Z,10.00
2022-11-17T07:16:31.070Z,7.35
2022-11-17T07:18:59.265Z,6.35
2022-11-17T07:21:26.426Z,12.05
2022-11-17T07:23:53.578Z,6.50
2022-11-17T07:26:20.480Z,7.10
2022-11-17T07:28:47.298Z,8.35
2022-11-17T07:31:14.348Z,5.35
2022-11-17T07:33:41.204Z,6.72
2022-11-17T07:36:11.046Z,9.27
2022-11-17T07:38:39.676Z,5.68
2022-11-17T07:41:08.836Z,7.30
2022-11-17T07:43:36.948Z,7.20
2022-11-17T07:46:13.399Z,8.27
2022-11-17T07:48:41.442Z,7.03
2022-11-17T07:51:08.796Z,7.72
2022-11-17T07:53:36.124Z,4.93
2022-11-17T07:56:04.835Z,4.53
2022-11-17T07:58:32.348Z,5.22
2022-11-17T08:00:59.613Z,3.05
2022-11-17T08:03:26.440Z,3.22
2022-11-17T08:05:53.428Z,1.63
2022-11-17T08:08:20.199Z,3.00
2022-11-17T08:10:46.943Z,3.47
2022-11-17T08:13:15.441Z,1.02
2022-11-17T08:15:42.203Z,0.93
2022-11-17T08:18:09.008Z,1.13
2022-11-17T08:20:35.861Z,1.27
2022-11-17T08:23:02.628Z,1.48
2022-11-17T08:25:29.379Z,2.58
2022-11-17T08:27:57.776Z,3.00
2022-11-17T08:30:26.010Z,1.23
2022-11-17T08:32:53.983Z,0.75
2022-11-17T08:35:24.258Z,1.63
2022-11-17T08:37:51.494Z,1.17
2022-11-17T08:40:18.709Z,2.13
2022-11-17T08:42:46.441Z,1.27
2022-11-17T08:45:13.726Z,0.70
2022-11-17T08:47:40.714Z,1.75
2022-11-17T08:50:08.282Z,1.20
2022-11-17T08:52:35.120Z,2.55
2022-11-17T08:55:02.634Z,0.68
2022-11-17T08:57:30.631Z,2.55
2022-11-17T08:59:57.724Z,3.05
2022-11-17T09:02:24.634Z,1.13
2022-11-17T09:04:51.452Z,1.65
2022-11-17T09:07:18.424Z,1.20
2022-11-17T09:09:46.323Z,0.65
2022-11-17T09:12:13.329Z,2.63
2022-11-17T09:14:40.476Z,0.82
2022-11-17T09:17:07.692Z,3.25
2022-11-17T09:19:34.470Z,0.45
2022-11-17T09:22:01.611Z,0.85
2022-11-17T09:24:28.422Z,1.10
2022-11-17T09:26:57.367Z,0.98
2022-11-17T09:29:24.188Z,1.70
2022-11-17T09:31:51.006Z,2.72
2022-11-17T09:34:18.074Z,1.60
2022-11-17T09:36:44.987Z,4.00
2022-11-17T09:39:11.832Z,1.80
2022-11-17T09:41:46.687Z,1.48
2022-11-17T09:44:16.245Z,4.93
2022-11-17T09:47:03.084Z,3.28
2022-11-17T09:49:35.837Z,4.60
2022-11-17T09:52:15.765Z,3.17
2022-11-17T09:54:56.775Z,2.42
2022-11-17T09:57:39.715Z,1.50
2022-11-17T10:00:19.856Z,3.13
2022-11-17T10:02:47.780Z,2.75
2022-11-17T10:05:19.637Z,3.67
2022-11-17T10:07:50.085Z,6.70
2022-11-17T10:10:33.658Z,4.07
2022-11-17T10:13:04.479Z,6.65
2022-11-17T10:15:41.701Z,5.65
2022-11-17T10:18:14.428Z,6.20
2022-11-17T10:20:43.087Z,7.88
2022-11-17T10:23:18.802Z,5.93
2022-11-17T10:25:56.684Z,6.30
2022-11-17T10:28:24.958Z,9.57
2022-11-17T10:31:00.669Z,11.32
2022-11-17T10:33:39.612Z,6.45
2022-11-17T10:36:28.776Z,8.43
2022-11-17T10:39:00.379Z,7.63
2022-11-17T10:41:40.503Z,10.88
2022-11-17T10:44:23.972Z,11.05
2022-11-17T10:47:04.089Z,10.50
2022-11-17T10:49:36.355Z,9.40
2022-11-17T10:52:23.683Z,8.38
2022-11-17T10:54:50.470Z,9.15
2022-11-17T10:57:23.324Z,11.98
2022-11-17T10:59:59.145Z,11.45
2022-11-17T11:02:37.075Z,7.70
2022-11-17T11:05:12.991Z,7.85
2022-11-17T11:07:40.798Z,6.68
2022-11-17T11:10:17.269Z,8.25
2022-11-17T11:13:02.340Z,6.43
2022-11-17T11:15:36.031Z,10.65
2022-11-17T11:18:16.298Z,10.30
2022-11-17T11:21:04.644Z,9.32
2022-11-17T11:23:37.652Z,7.78
2022-11-17T11:26:10.242Z,11.32
2022-11-17T11:29:09.564Z,6.88
2022-11-17T11:31:54.795Z,7.40
2022-11-17T11:34:38.391Z,8.07
2022-11-17T11:37:12.377Z,12.07
2022-11-17T11:40:09.877Z,8.68
2022-11-17T11:42:43.957Z,7.80
2022-11-17T11:45:19.262Z,11.55
2022-11-17T11:47:57.981Z,5.50
2022-11-17T11:50:27.671Z,10.65
2022-11-17T11:53:03.706Z,11.88
2022-11-17T11:55:37.545Z,13.23
2022-11-17T11:58:14.351Z,10.40
2022-11-17T12:00:42.802Z,9.73
2022-11-17T12:03:15.561Z,7.65
2022-11-17T12:06:23.197Z,9.95
2022-11-17T12:09:11.746Z,7.65
2022-11-17T12:11:59.906Z,9.73
2022-11-17T12:14:33.179Z,8.10
2022-11-17T12:17:07.496Z,5.10
2022-11-17T12:19:57.350Z,5.72
2022-11-17T12:22:29.934Z,7.00
2022-11-17T12:25:00.416Z,7.35
2022-11-17T12:27:36.287Z,9.32
2022-11-17T12:30:05.646Z,8.70
2022-11-17T12:32:44.578Z,10.48
2022-11-17T12:35:35.757Z,10.20
2022-11-17T12:38:17.520Z,7.55
2022-11-17T12:40:46.473Z,8.60
2022-11-17T12:43:16.329Z,8.32
2022-11-17T12:45:58.378Z,8.25
2022-11-17T12:48:34.398Z,7.47
2022-11-17T12:51:15.475Z,14.77
2022-11-17T12:53:53.672Z,9.55
2022-11-17T12:56:27.972Z,6.05
2022-11-17T12:58:54.771Z,9.75
2022-11-17T13:01:33.405Z,10.77
2022-11-17T13:04:26.844Z,8.75
2022-11-17T13:07:05.319Z,7.38
2022-11-17T13:09:34.851Z,10.18
2022-11-17T13:12:04.459Z,9.75
2022-11-17T13:14:35.996Z,7.35
2022-11-17T13:17:03.227Z,8.18
2022-11-17T13:19:41.663Z,4.97
2022-11-17T13:22:16.628Z,8.27
2022-11-17T13:24:46.741Z,8.13
2022-11-17T13:27:25.186Z,6.93
2022-11-17T13:29:52.929Z,4.85
2022-11-17T13:32:21.323Z,10.20
2022-11-17T13:34:51.675Z,9.48
2022-11-17T13:37:21.523Z,5.88
2022-11-17T13:40:22.558Z,8.15
2022-11-17T13:42:50.167Z,6.60
2022-11-17T13:45:17.187Z,8.07
2022-11-17T13:47:49.122Z,7.13
2022-11-17T13:50:30.973Z,9.00
2022-11-17T13:53:22.788Z,4.65
2022-11-17T13:55:50.369Z,4.95
2022-11-17T13:58:29.513Z,5.35
2022-11-17T14:00:58.130Z,5.13
2022-11-17T14:03:40.630Z,7.25
2022-11-17T14:06:10.089Z,7.05
2022-11-17T14:08:38.720Z,7.38
2022-11-17T14:11:11.578Z,4.40
2022-11-17T14:13:39.874Z,5.18
2022-11-17T14:16:25.735Z,11.40
2022-11-17T14:19:23.709Z,3.42
2022-11-17T14:22:00.941Z,4.40
2022-11-17T14:24:28.377Z,5.32
2022-11-17T14:26:56.091Z,3.53
2022-11-17T14:29:23.017Z,4.45
2022-11-17T14:31:49.812Z,6.50
2022-11-17T14:34:17.367Z,7.75
2022-11-17T14:36:45.159Z,6.18
2022-11-17T14:39:18.015Z,4.65
2022-11-17T14:41:47.022Z,7.90
2022-11-17T14:44:14.125Z,8.10
2022-11-17T14:46:40.951Z,6.40
2022-11-17T14:49:07.915Z,5.28
2022-11-17T14:51:35.769Z,3.63
2022-11-17T14:54:03.883Z,4.50
2022-11-17T14:56:30.848Z,4.00
2022-11-17T14:58:59.169Z,5.85
2022-11-17T15:01:32.334Z,4.70
2022-11-17T15:04:15.368Z,4.88
2022-11-17T15:06:48.808Z,6.15
2022-11-17T15:09:16.533Z,4.95
2022-11-17T15:11:43.413Z,6.22
2022-11-17T15:14:10.993Z,10.80
2022-11-17T15:16:38.241Z,6.72
2022-11-17T15:19:05.473Z,9.25
2022-11-17T15:21:32.281Z,9.20
2022-11-17T15:24:02.045Z,12.90
2022-11-17T15:26:29.000Z,10.63
2022-11-17T15:28:57.889Z,6.82
2022-11-17T15:31:24.745Z,6.78
2022-11-17T15:33:51.581Z,7.35
2022-11-17T15:36:20.777Z,10.65
2022-11-17T15:38:47.905Z,8.25
2022-11-17T15:41:15.727Z,8.63
2022-11-17T15:43:44.605Z,8.88
2022-11-17T15:46:13.987Z,9.88
2022-11-17T15:48:45.081Z,2.85
2022-11-17T15:51:15.070Z,5.22
2022-11-17T15:53:43.223Z,5.60
2022-11-17T15:56:22.900Z,4.88
2022-11-17T15:59:04.950Z,6.22
2022-11-17T16:01:39.050Z,7.88
2022-11-17T16:04:11.323Z,6.43
2022-11-17T16:06:39.969Z,5.18
2022-11-17T16:09:07.958Z,4.88
2022-11-17T16:11:35.874Z,4.38
2022-11-17T16:14:03.020Z,5.80
2022-11-17T16:16:35.675Z,5.13
2022-11-17T16:19:03.080Z,6.90
2022-11-17T16:21:29.880Z,8.70
2022-11-17T16:23:57.881Z,9.75
2022-11-17T16:26:26.590Z,4.82
2022-11-17T16:29:01.735Z,5.57
2022-11-17T16:31:30.546Z,5.43
2022-11-17T16:34:05.064Z,3.25
2022-11-17T16:36:36.810Z,3.78
2022-11-17T16:39:09.400Z,6.00
2022-11-17T16:41:39.121Z,3.28
2022-11-17T16:44:16.788Z,14.07
2022-11-17T16:46:45.879Z,24.90
2022-11-17T16:49:15.161Z,11.75
2022-11-17T16:51:47.625Z,5.40
2022-11-17T16:54:15.493Z,9.82
2022-11-17T16:56:42.641Z,3.75
2022-11-17T16:59:12.651Z,6.55
2022-11-17T17:01:39.627Z,8.60
2022-11-17T17:04:08.885Z,6.50
2022-11-17T17:06:37.441Z,6.30
2022-11-17T17:09:06.361Z,6.85
2022-11-17T17:11:35.736Z,5.78
2022-11-17T17:14:04.744Z,8.55
2022-11-17T17:16:33.430Z,7.22
2022-11-17T17:19:04.026Z,8.63
2022-11-17T17:21:31.624Z,9.38
2022-11-17T17:23:58.464Z,7.90
2022-11-17T17:26:27.567Z,10.63
2022-11-17T17:28:56.852Z,10.73
2022-11-17T17:31:25.605Z,9.82
2022-11-17T17:33:54.623Z,5.20
2022-11-17T17:36:24.190Z,8.38
2022-11-17T17:38:56.135Z,7.78
2022-11-17T17:41:26.173Z,8.30
2022-11-17T17:44:03.406Z,5.80
2022-11-17T17:46:33.339Z,6.00
2022-11-17T17:49:00.266Z,4.47
2022-11-17T17:51:29.118Z,6.90
2022-11-17T17:53:58.571Z,7.03
2022-11-17T17:56:25.604Z,7.85
2022-11-17T17:58:55.373Z,4.50
2022-11-17T18:01:27.964Z,4.43
2022-11-17T18:04:07.356Z,7.53
2022-11-17T18:06:38.674Z,7.40
2022-11-17T18:09:07.745Z,3.47
2022-11-17T18:11:35.703Z,5.30
2022-11-17T18:14:03.509Z,4.85
2022-11-17T18:16:32.691Z,10.73
2022-11-17T18:19:04.916Z,5.85
2022-11-17T18:21:32.336Z,7.25
2022-11-17T18:24:01.307Z,5.10
2022-11-17T18:26:31.238Z,7.57
2022-11-17T18:29:18.405Z,4.85
2022-11-17T18:31:47.252Z,4.72
2022-11-17T18:34:21.069Z,3.88
2022-11-17T18:36:52.436Z,4.43
2022-11-17T18:39:19.944Z,4.78
2022-11-17T18:41:47.268Z,2.17
2022-11-17T18:44:15.406Z,3.45
2022-11-17T18:46:42.266Z,1.70
2022-11-17T18:49:09.324Z,4.82
2022-11-17T18:51:36.148Z,3.65
2022-11-17T18:54:03.693Z,2.58
2022-11-17T18:56:37.799Z,4.38
2022-11-17T18:59:11.136Z,2.58
2022-11-17T19:01:42.253Z,2.45
2022-11-17T19:04:10.476Z,1.95
2022-11-17T19:06:37.450Z,1.90
2022-11-17T19:09:04.261Z,3.35
2022-11-17T19:11:32.804Z,2.78
2022-11-17T19:14:07.192Z,2.42
2022-11-17T19:16:42.661Z,1.95
2022-11-17T19:19:10.815Z,3.78
2022-11-17T19:21:37.622Z,2.38
2022-11-17T19:24:05.240Z,4.75
2022-11-17T19:26:34.549Z,2.08
2022-11-17T19:29:04.222Z,3.03
2022-11-17T19:31:31.683Z,3.03
2022-11-17T19:33:58.872Z,3.97
2022-11-17T19:36:29.410Z,4.20
2022-11-17T19:38:57.959Z,3.22
2022-11-17T19:41:25.795Z,1.33
2022-11-17T19:43:54.393Z,1.60
2022-11-17T19:46:22.159Z,2.25
2022-11-17T19:48:49.278Z,2.75
2022-11-17T19:51:22.263Z,1.98
2022-11-17T19:53:53.707Z,5.00
2022-11-17T19:56:21.305Z,2.30
2022-11-17T19:58:49.889Z,2.78
2022-11-17T20:01:19.405Z,2.00
2022-11-17T20:03:46.836Z,1.85
2022-11-17T20:06:16.325Z,2.47
2022-11-17T20:08:43.645Z,1.55
2022-11-17T20:11:11.554Z,1.73
2022-11-17T20:13:39.217Z,2.47
2022-11-17T20:16:11.963Z,2.60
2022-11-17T20:18:40.574Z,1.35
2022-11-17T20:21:08.305Z,1.25
2022-11-17T20:23:36.034Z,2.22
2022-11-17T20:26:08.341Z,1.65
2022-11-17T20:28:36.593Z,2.53
2022-11-17T20:31:19.229Z,3.90
2022-11-17T20:33:47.644Z,1.83
2022-11-17T20:36:17.265Z,3.08
2022-11-17T20:38:44.654Z,4.05
2022-11-17T20:41:11.693Z,1.60
2022-11-17T20:43:38.609Z,2.17
2022-11-17T20:46:05.949Z,2.70
2022-11-17T20:48:35.255Z,3.67
2022-11-17T20:51:05.776Z,3.42
2022-11-17T20:53:33.146Z,5.05
2022-11-17T20:56:02.353Z,2.50
2022-11-17T20:58:30.029Z,2.75
2022-11-17T21:00:57.113Z,2.53
2022-11-17T21:03:25.808Z,3.75
2022-11-17T21:05:59.151Z,3.28
2022-11-17T21:08:29.411Z,3.75
2022-11-17T21:11:06.298Z,8.45
2022-11-17T21:13:34.415Z,9.32
2022-11-17T21:16:05.474Z,6.10
2022-11-17T21:18:32.658Z,4.60
2022-11-17T21:21:04.622Z,4.85
2022-11-17T21:23:31.559Z,1.17
2022-11-17T21:26:02.478Z,2.17
2022-11-17T21:28:29.358Z,1.58
2022-11-17T21:31:03.156Z,1.23
2022-11-17T21:33:29.916Z,1.15
2022-11-17T21:36:01.753Z,2.15
2022-11-17T21:38:29.613Z,1.00
2022-11-17T21:41:01.895Z,2.63
2022-11-17T21:43:29.169Z,2.40
2022-11-17T21:46:01.457Z,1.73
2022-11-17T21:48:28.409Z,1.48
2022-11-17T21:50:55.513Z,2.38
2022-11-17T21:53:22.408Z,1.38
2022-11-17T21:55:49.162Z,1.42
2022-11-17T21:58:15.922Z,2.42
2022-11-17T22:00:43.004Z,2.60
2022-11-17T22:03:10.737Z,2.92
2022-11-17T22:05:37.565Z,2.00
2022-11-17T22:08:04.459Z,2.08
2022-11-17T22:10:31.234Z,2.35
2022-11-17T22:12:58.109Z,1.50
2022-11-17T22:15:24.870Z,1.90
2022-11-17T22:17:52.142Z,1.35
2022-11-17T22:20:19.085Z,1.33
2022-11-17T22:22:47.638Z,1.60
2022-11-17T22:25:43.022Z,4.05
2022-11-17T22:28:01.367Z,2.35
2022-11-17T22:30:28.481Z,1.88
2022-11-17T22:32:55.768Z,1.45
2022-11-17T22:35:22.576Z,2.10
2022-11-17T22:37:49.518Z,1.00
2022-11-17T22:40:16.357Z,1.30
2022-11-17T22:42:43.387Z,1.13
2022-11-17T22:45:10.471Z,1.00
2022-11-17T22:47:37.328Z,1.15
2022-11-17T22:50:04.832Z,2.45
2022-11-17T22:52:31.619Z,0.93
2022-11-17T22:54:58.367Z,1.88
2022-11-17T22:57:25.345Z,1.13
2022-11-17T22:59:52.111Z,4.10
2022-11-17T23:02:18.959Z,1.48
2022-11-17T23:04:45.738Z,1.13
2022-11-17T23:07:12.573Z,0.63
2022-11-17T23:09:39.549Z,1.00
2022-11-17T23:12:06.634Z,3.08
2022-11-17T23:14:33.475Z,0.68
2022-11-17T23:17:00.293Z,1.33
2022-11-17T23:19:27.084Z,0.90
2022-11-17T23:21:53.826Z,1.60
2022-11-17T23:24:20.756Z,1.02
2022-11-17T23:26:47.625Z,1.60
2022-11-17T23:29:14.791Z,1.13
2022-11-17T23:31:41.902Z,1.58
2022-11-17T23:34:12.069Z,1.15
2022-11-17T23:36:39.159Z,0.98
2022-11-17T23:39:06.306Z,1.65
2022-11-17T23:41:33.142Z,1.23
2022-11-17T23:43:59.946Z,2.28
2022-11-17T23:46:27.334Z,1.52
2022-11-17T23:48:56.202Z,1.52
2022-11-17T23:51:25.843Z,1.45
2022-11-17T23:53:53.223Z,1.27
2022-11-17T23:56:20.730Z,1.88
2022-11-17T23:58:48.142Z,2.22
